Time;durP1;ratioP1;P1;durP2;ratioP2;P2;SDS_P1;SDS_P2;PMS_P1;PMS_P2;Temp;Humidity;BMP_temperature;BMP_pressure;BME280_temperature;BME280_humidity;BME280_pressure;Samples;Min_cycle;Max_cycle;Signal;HPM_P1;HPM_P2
2022/05/12 00:02:36;;;;;;;;;;;18.20;99.90;;;;;;4929377;29;19943;-80
2022/05/12 00:05:34;;;;;;;;;;;18.20;99.90;;;;;;4912167;28;20013;-77
2022/05/12 00:11:07;;;;;;;;;;;18.20;99.90;;;;;;4939577;28;19957;-77
2022/05/12 00:16:36;;;;;;;;;;;18.10;99.90;;;;;;4965598;28;19926;-77
2022/05/12 00:25:21;;;;;;;;;;;18.10;99.90;;;;;;4935460;28;19974;-78
2022/05/12 00:28:17;;;;;;;;;;;18.10;99.90;;;;;;4933378;29;19930;-78
2022/05/12 00:30:44;;;;;;;;;;;18.00;99.90;;;;;;4927932;29;19915;-79
2022/05/12 00:33:28;;;;;;;;;;;18.00;99.90;;;;;;4992305;28;19967;-78
2022/05/12 00:36:00;;;;;;;;;;;18.00;99.90;;;;;;5013090;28;19979;-81
2022/05/12 00:38:42;;;;;;;;;;;18.00;99.90;;;;;;5013887;28;19920;-78
2022/05/12 00:41:08;;;;;;;;;;;17.90;99.90;;;;;;4995187;28;19953;-77
2022/05/12 00:43:37;;;;;;;;;;;17.80;99.90;;;;;;5016368;28;19936;-80
2022/05/12 00:46:10;;;;;;;;;;;17.90;99.90;;;;;;4996751;28;19913;-78
2022/05/12 00:48:58;;;;;;;;;;;17.90;99.90;;;;;;5014410;28;19910;-77
2022/05/12 00:51:33;;;;;;;;;;;17.80;99.90;;;;;;5017346;28;19909;-80
2022/05/12 01:09:42;;;;;;;;;;;17.70;99.90;;;;;;4936800;29;20392;-79
2022/05/12 01:11:50;;;;;;;;;;;17.70;99.90;;;;;;4933184;29;19919;-77
2022/05/12 01:14:25;;;;;;;;;;;17.70;99.90;;;;;;4996060;28;19914;-76
2022/05/12 01:16:53;;;;;;;;;;;17.70;99.90;;;;;;5000357;28;19917;-79
2022/05/12 01:19:23;;;;;;;;;;;17.70;99.90;;;;;;4999703;28;19920;-80
2022/05/12 01:22:09;;;;;;;;;;;;;;;;;;;;;
2022/05/12 01:24:58;;;;;;;;;;;;;;;;;;;;;
2022/05/12 01:30:33;;;;;;;;;;;17.70;99.90;;;;;;4969508;28;20479;-78
2022/05/12 01:47:50;;;;;;;;;;;17.60;99.90;;;;;;5028308;28;19913;-80
2022/05/12 01:56:34;;;;;;;;;;;17.50;99.90;;;;;;4958737;28;19925;-76
2022/05/12 01:59:19;;;;;;;;;;;17.50;99.90;;;;;;5010808;28;19923;-78
2022/05/12 02:01:48;;;;;;;;;;;17.50;99.90;;;;;;5021541;28;19921;-76
2022/05/12 02:04:14;;;;;;;;;;;17.50;99.90;;;;;;5018284;28;19920;-77
2022/05/12 02:06:43;;;;;;;;;;;17.50;99.90;;;;;;5020091;28;19909;-77
2022/05/12 02:12:41;;;;;;;;;;;;;;;;;;;;;
2022/05/12 02:18:48;;;;;;;;;;;17.50;99.90;;;;;;4878459;29;19926;-76
2022/05/12 02:33:42;;;;;;;;;;;17.50;99.90;;;;;;4976345;28;19914;-77
2022/05/12 02:45:45;;;;;;;;;;;17.60;99.90;;;;;;4903359;29;20026;-78
2022/05/12 02:48:11;;;;;;;;;;;17.60;99.90;;;;;;4904212;29;20004;-77
2022/05/12 02:58:09;;;;;;;;;;;;;;;;;;;;;
2022/05/12 03:12:31;;;;;;;;;;;17.30;99.90;;;;;;4911082;29;19925;-77
2022/05/12 03:15:23;;;;;;;;;;;;;;;;;;;;;
2022/05/12 03:39:33;;;;;;;;;;;;;;;;;;;;;
2022/05/12 03:48:25;;;;;;;;;;;17.60;99.90;;;;;;4958930;28;20058;-77
2022/05/12 04:28:48;;;;;;;;;;;18.00;99.90;;;;;;4846841;26;19913;-76
2022/05/12 04:31:26;;;;;;;;;;;18.10;99.90;;;;;;5058078;28;19906;-75
2022/05/12 04:40:02;;;;;;;;;;;18.30;99.90;;;;;;5053713;28;19932;-76
2022/05/12 04:49:12;;;;;;;;;;;;;;;;;;;;;
2022/05/12 04:54:56;;;;;;;;;;;18.80;99.90;;;;;;4971669;28;20387;-77
2022/05/12 05:10:12;;;;;;;;;;;18.90;99.90;;;;;;4929814;29;19959;-80
2022/05/12 05:12:58;;;;;;;;;;;19.00;99.90;;;;;;4917227;29;20018;-78
2022/05/12 05:15:25;;;;;;;;;;;19.20;99.90;;;;;;4916305;29;19916;-78
2022/05/12 05:17:51;;;;;;;;;;;19.40;99.90;;;;;;4938990;28;19953;-78
2022/05/12 05:20:22;;;;;;;;;;;19.50;99.90;;;;;;4965350;28;19972;-79
2022/05/12 05:22:48;;;;;;;;;;;19.60;99.90;;;;;;5022864;28;19910;-79
2022/05/12 05:25:14;;;;;;;;;;;19.80;99.90;;;;;;5018934;28;19917;-80
2022/05/12 05:27:40;;;;;;;;;;;19.80;99.90;;;;;;5041731;28;19917;-78
2022/05/12 05:30:08;;;;;;;;;;;19.90;99.90;;;;;;5050564;28;19964;-80
2022/05/12 05:38:43;;;;;;;;;;;20.20;99.90;;;;;;4971472;29;19918;-76
2022/05/12 05:41:10;;;;;;;;;;;20.40;99.90;;;;;;5024786;28;19913;-77
2022/05/12 05:43:36;;;;;;;;;;;20.40;99.90;;;;;;5037340;28;19917;-77
2022/05/12 05:46:04;;;;;;;;;;;20.50;99.90;;;;;;5015054;28;19925;-77
2022/05/12 05:48:31;;;;;;;;;;;20.50;99.90;;;;;;5037560;28;20313;-77
2022/05/12 05:53:41;;;;;;;;;;;20.50;99.90;;;;;;5037535;28;20393;-77
2022/05/12 05:56:11;;;;;;;;;;;20.70;99.90;;;;;;5035299;28;19913;-80
2022/05/12 05:58:39;;;;;;;;;;;20.70;99.90;;;;;;5035621;28;20010;-78
2022/05/12 06:01:05;;;;;;;;;;;20.80;99.90;;;;;;5017995;28;19913;-78
2022/05/12 06:03:31;;;;;;;;;;;20.90;99.90;;;;;;5018887;28;19939;-78
2022/05/12 06:05:57;;;;;;;;;;;21.00;99.90;;;;;;5036011;28;19909;-81
2022/05/12 06:08:22;;;;;;;;;;;21.10;99.90;;;;;;5036176;28;19996;-77
2022/05/12 06:10:49;;;;;;;;;;;21.20;99.90;;;;;;5029360;28;19983;-77
2022/05/12 06:13:57;;;;;;;;;;;21.20;99.90;;;;;;5023337;28;19933;-77
2022/05/12 06:16:05;;;;;;;;;;;21.30;99.90;;;;;;5019967;28;20006;-79
2022/05/12 06:18:30;;;;;;;;;;;21.40;99.90;;;;;;5034015;28;19916;-77
2022/05/12 06:20:59;;;;;;;;;;;21.50;99.90;;;;;;5029271;28;19913;-78
2022/05/12 06:23:25;;;;;;;;;;;21.60;99.90;;;;;;5033669;28;19917;-78
2022/05/12 06:25:54;;;;;;;;;;;21.70;99.90;;;;;;5034032;28;19967;-77
2022/05/12 06:28:20;;;;;;;;;;;21.70;99.90;;;;;;5033011;28;19917;-78
2022/05/12 06:30:46;;;;;;;;;;;21.80;99.90;;;;;;5014851;28;19913;-77
2022/05/12 06:33:19;;;;;;;;;;;21.70;99.90;;;;;;5017531;28;19914;-78
2022/05/12 06:35:44;;;;;;;;;;;21.70;99.90;;;;;;5016938;28;20330;-76
2022/05/12 06:38:11;;;;;;;;;;;21.70;99.90;;;;;;5014527;28;19928;-77
2022/05/12 06:40:37;;;;;;;;;;;21.80;99.90;;;;;;5035458;28;19940;-77
2022/05/12 06:43:04;;;;;;;;;;;21.90;99.90;;;;;;5032771;28;20008;-77
2022/05/12 06:45:30;;;;;;;;;;;21.90;99.90;;;;;;5020541;28;19961;-79
2022/05/12 06:48:14;;;;;;;;;;;;;;;;;;;;;
2022/05/12 06:50:40;;;;;;;;;;;22.00;99.90;;;;;;5036706;28;20335;-78
2022/05/12 06:53:09;;;;;;;;;;;22.10;99.90;;;;;;5039343;28;19909;-77
2022/05/12 06:55:35;;;;;;;;;;;22.20;99.90;;;;;;5038379;28;19923;-77
2022/05/12 06:58:01;;;;;;;;;;;22.30;99.90;;;;;;5045302;28;19972;-78
2022/05/12 07:00:26;;;;;;;;;;;22.40;99.90;;;;;;5038936;28;19920;-77
2022/05/12 07:02:52;;;;;;;;;;;22.40;99.90;;;;;;5039287;28;19955;-77
2022/05/12 07:05:19;;;;;;;;;;;22.40;99.90;;;;;;5005446;28;19917;-77
2022/05/12 07:07:45;;;;;;;;;;;22.40;99.90;;;;;;5027319;28;19924;-78
2022/05/12 07:10:14;;;;;;;;;;;22.60;99.90;;;;;;5037030;28;19917;-77
2022/05/12 07:12:41;;;;;;;;;;;22.70;99.90;;;;;;5046284;28;19959;-77
2022/05/12 07:15:08;;;;;;;;;;;22.70;99.90;;;;;;5011296;28;19940;-77
2022/05/12 07:17:37;;;;;;;;;;;22.70;99.90;;;;;;5019620;28;19909;-77
2022/05/12 07:28:17;;;;;;;;;;;22.70;99.90;;;;;;5036458;28;19974;-77
2022/05/12 07:31:01;;;;;;;;;;;22.60;99.90;;;;;;5019832;28;20587;-77
2022/05/12 07:33:28;;;;;;;;;;;22.60;99.90;;;;;;5039821;28;19941;-79
2022/05/12 07:35:53;;;;;;;;;;;22.50;99.90;;;;;;5037663;28;19971;-77
2022/05/12 07:38:20;;;;;;;;;;;22.20;99.90;;;;;;5037168;28;19925;-77
2022/05/12 07:40:46;;;;;;;;;;;22.10;99.90;;;;;;5019813;28;19913;-76
2022/05/12 07:43:12;;;;;;;;;;;21.90;99.90;;;;;;5025026;28;19933;-76
2022/05/12 07:45:38;;;;;;;;;;;21.80;99.90;;;;;;5030799;28;20018;-70
2022/05/12 07:48:03;;;;;;;;;;;21.80;99.90;;;;;;5033612;28;19909;-71
2022/05/12 07:50:29;;;;;;;;;;;21.80;99.90;;;;;;5014606;28;20325;-71
2022/05/12 07:52:55;;;;;;;;;;;21.80;99.90;;;;;;5033058;28;20294;-70
2022/05/12 07:55:21;;;;;;;;;;;21.80;99.90;;;;;;5032471;28;20008;-70
2022/05/12 07:57:50;;;;;;;;;;;21.80;99.90;;;;;;5032269;28;19953;-70
2022/05/12 08:00:40;;;;;;;;;;;21.90;99.90;;;;;;5032531;28;19917;-73
2022/05/12 08:03:23;;;;;;;;;;;;;;;;;;;;;
2022/05/12 08:05:49;;;;;;;;;;;21.90;99.90;;;;;;5033165;28;20002;-71
2022/05/12 08:11:20;;;;;;;;;;;22.00;99.90;;;;;;5027114;28;19970;-72
2022/05/12 08:13:47;;;;;;;;;;;22.00;99.90;;;;;;5033825;28;19913;-71
2022/05/12 08:16:17;;;;;;;;;;;22.10;99.90;;;;;;5015712;28;20453;-71
2022/05/12 08:25:10;;;;;;;;;;;22.20;99.90;;;;;;4933244;29;20027;-71
2022/05/12 08:27:39;;;;;;;;;;;22.10;99.90;;;;;;4918358;29;19918;-72
2022/05/12 08:30:23;;;;;;;;;;;22.10;99.90;;;;;;4995268;28;19967;-72
2022/05/12 08:32:49;;;;;;;;;;;22.20;99.90;;;;;;5033195;28;19917;-72
2022/05/12 08:35:35;;;;;;;;;;;22.20;99.90;;;;;;5032852;28;20016;-72
2022/05/12 08:38:01;;;;;;;;;;;22.20;99.90;;;;;;5012174;28;19923;-71
2022/05/12 08:43:59;;;;;;;;;;;22.30;99.90;;;;;;5025494;28;20019;-71
2022/05/12 08:46:55;;;;;;;;;;;;;;;;;;;;;
2022/05/12 08:49:24;;;;;;;;;;;22.20;99.90;;;;;;4971690;28;19944;-70
2022/05/12 08:52:21;;;;;;;;;;;22.40;99.90;;;;;;4987935;28;19914;-70
2022/05/12 08:54:51;;;;;;;;;;;22.50;99.90;;;;;;5011278;28;20000;-71
2022/05/12 08:57:35;;;;;;;;;;;22.60;99.90;;;;;;5014667;28;19933;-71
2022/05/12 09:00:03;;;;;;;;;;;22.80;99.90;;;;;;5032105;28;19959;-70
2022/05/12 09:02:47;;;;;;;;;;;22.80;99.90;;;;;;5032827;28;19927;-70
2022/05/12 09:05:18;;;;;;;;;;;22.90;99.90;;;;;;5031619;28;20264;-70
2022/05/12 09:07:53;;;;;;;;;;;23.00;99.90;;;;;;5031353;28;20314;-71
2022/05/12 09:10:19;;;;;;;;;;;23.00;99.90;;;;;;5018560;28;20402;-73
2022/05/12 09:12:52;;;;;;;;;;;23.00;99.90;;;;;;5023557;28;19929;-71
2022/05/12 09:15:31;;;;;;;;;;;23.00;99.90;;;;;;5035804;28;19967;-70
2022/05/12 09:18:20;;;;;;;;;;;23.10;99.90;;;;;;5034579;28;20290;-70
2022/05/12 09:20:45;;;;;;;;;;;23.10;99.90;;;;;;5008473;28;19956;-71
2022/05/12 09:23:36;;;;;;;;;;;23.20;99.90;;;;;;5020860;28;19913;-71
2022/05/12 09:26:22;;;;;;;;;;;23.20;99.90;;;;;;5034551;28;19913;-71
2022/05/12 09:28:48;;;;;;;;;;;23.30;99.90;;;;;;5032102;28;19971;-71
2022/05/12 09:31:15;;;;;;;;;;;23.30;99.90;;;;;;5035516;28;19913;-71
2022/05/12 09:33:41;;;;;;;;;;;23.20;99.90;;;;;;5031055;28;19921;-71
2022/05/12 09:36:36;;;;;;;;;;;23.20;99.90;;;;;;5031547;28;19921;-70
2022/05/12 09:39:03;;;;;;;;;;;23.30;99.90;;;;;;5033502;28;19914;-71
2022/05/12 09:41:51;;;;;;;;;;;23.30;99.90;;;;;;5034524;28;19921;-71
2022/05/12 09:47:30;;;;;;;;;;;23.40;99.90;;;;;;5035570;28;19951;-70
2022/05/12 09:50:19;;;;;;;;;;;23.30;99.90;;;;;;5033951;28;19956;-71
2022/05/12 09:53:15;;;;;;;;;;;23.30;99.90;;;;;;5029226;28;19913;-71
2022/05/12 09:55:57;;;;;;;;;;;23.30;99.90;;;;;;4997416;28;19920;-71
2022/05/12 09:58:35;;;;;;;;;;;23.50;99.90;;;;;;5024569;28;20089;-71
2022/05/12 10:01:20;;;;;;;;;;;23.50;99.90;;;;;;5034866;28;20364;-71
2022/05/12 10:09:23;;;;;;;;;;;23.00;99.90;;;;;;5034199;28;19971;-71
2022/05/12 10:15:00;;;;;;;;;;;22.90;99.90;;;;;;5029589;28;19987;-70
2022/05/12 10:17:33;;;;;;;;;;;22.90;99.90;;;;;;5029600;28;20381;-70
2022/05/12 10:20:04;;;;;;;;;;;22.90;99.90;;;;;;5028347;28;19917;-70
2022/05/12 10:25:33;;;;;;;;;;;22.90;99.90;;;;;;5023652;28;19913;-72
2022/05/12 10:28:17;;;;;;;;;;;22.80;99.90;;;;;;5034498;28;20059;-71
2022/05/12 10:30:46;;;;;;;;;;;22.90;99.90;;;;;;5035303;28;19913;-70
2022/05/12 10:33:15;;;;;;;;;;;22.90;99.90;;;;;;5018709;28;19991;-71
2022/05/12 10:35:45;;;;;;;;;;;22.90;99.90;;;;;;5032814;28;19997;-71
2022/05/12 10:38:30;;;;;;;;;;;22.90;99.90;;;;;;5034940;28;19957;-71
2022/05/12 10:41:33;;;;;;;;;;;22.80;99.90;;;;;;5032207;28;19944;-71
2022/05/12 10:43:59;;;;;;;;;;;22.70;99.90;;;;;;5016824;28;20004;-71
2022/05/12 10:46:44;;;;;;;;;;;22.70;99.90;;;;;;5019920;28;19936;-70
2022/05/12 10:49:28;;;;;;;;;;;22.70;99.90;;;;;;5032228;28;19932;-70
2022/05/12 10:52:06;;;;;;;;;;;22.80;99.90;;;;;;5027159;28;20398;-70
2022/05/12 10:54:54;;;;;;;;;;;22.70;99.90;;;;;;5034769;28;20386;-70
2022/05/12 10:57:23;;;;;;;;;;;22.60;99.90;;;;;;5030335;28;19923;-69
2022/05/12 11:03:57;;;;;;;;;;;22.80;99.90;;;;;;5000479;28;19920;-68
2022/05/12 11:06:22;;;;;;;;;;;22.80;99.90;;;;;;5031569;28;19921;-69
2022/05/12 11:11:45;;;;;;;;;;;22.80;99.90;;;;;;5032633;28;19920;-74
2022/05/12 11:20:56;;;;;;;;;;;;;;;;;;;;;
2022/05/12 11:23:41;;;;;;;;;;;23.10;99.90;;;;;;4973076;28;19914;-71
2022/05/12 11:26:07;;;;;;;;;;;22.90;99.90;;;;;;4973842;28;19914;-71
2022/05/12 11:34:50;;;;;;;;;;;23.10;99.90;;;;;;5021985;28;19913;-72
2022/05/12 11:40:43;;;;;;;;;;;23.30;99.90;;;;;;5030399;28;20346;-71
2022/05/12 11:46:14;;;;;;;;;;;23.30;99.90;;;;;;5034157;28;19993;-71
2022/05/12 11:49:06;;;;;;;;;;;23.30;99.90;;;;;;5021563;28;19956;-71
2022/05/12 11:51:52;;;;;;;;;;;23.40;99.90;;;;;;5030879;28;19967;-71
2022/05/12 11:57:57;;;;;;;;;;;23.30;99.90;;;;;;5032579;28;19975;-73
2022/05/12 12:00:41;;;;;;;;;;;23.50;99.90;;;;;;5030999;28;20287;-72
2022/05/12 12:06:33;;;;;;;;;;;23.40;99.90;;;;;;5032159;28;19960;-72
2022/05/12 12:18:28;;;;;;;;;;;23.40;99.90;;;;;;5012939;28;20347;-72
2022/05/12 12:24:05;;;;;;;;;;;23.10;99.90;;;;;;5026871;28;19919;-71
2022/05/12 12:26:59;;;;;;;;;;;23.30;99.90;;;;;;5029516;28;20032;-70
2022/05/12 12:32:45;;;;;;;;;;;23.50;99.90;;;;;;5029201;28;20001;-70
2022/05/12 12:35:41;;;;;;;;;;;23.50;99.90;;;;;;5024437;28;19925;-71
2022/05/12 12:38:09;;;;;;;;;;;23.40;99.90;;;;;;5032392;28;19913;-71
2022/05/12 12:40:44;;;;;;;;;;;23.20;99.90;;;;;;5026812;28;19917;-72
2022/05/12 12:43:40;;;;;;;;;;;23.10;99.90;;;;;;5034695;28;19913;-71
2022/05/12 12:49:24;;;;;;;;;;;23.00;99.90;;;;;;5006726;28;19924;-71
2022/05/12 12:52:10;;;;;;;;;;;23.10;99.90;;;;;;5029605;28;19952;-71
2022/05/12 12:57:20;;;;;;;;;;;23.20;99.90;;;;;;5033610;28;19940;-71
2022/05/12 12:59:54;;;;;;;;;;;23.00;99.90;;;;;;5037916;28;19909;-71
2022/05/12 13:02:51;;;;;;;;;;;23.10;99.90;;;;;;5040205;28;19968;-71
2022/05/12 13:05:21;;;;;;;;;;;23.20;99.90;;;;;;5035372;28;19920;-71
2022/05/12 13:08:09;;;;;;;;;;;23.20;99.90;;;;;;5035164;28;20268;-71
2022/05/12 13:10:55;;;;;;;;;;;23.30;99.90;;;;;;5016531;28;19913;-70
2022/05/12 13:13:40;;;;;;;;;;;;;;;;;;;;;
2022/05/12 13:16:07;;;;;;;;;;;22.90;99.90;;;;;;5037452;28;19913;-71
2022/05/12 13:18:45;;;;;;;;;;;;;;;;;;;;;
2022/05/12 13:21:25;;;;;;;;;;;23.20;99.90;;;;;;5036307;28;20456;-71
2022/05/12 13:24:18;;;;;;;;;;;23.30;99.90;;;;;;5029400;28;19924;-71
2022/05/12 13:27:04;;;;;;;;;;;23.20;99.90;;;;;;4992062;28;19919;-73
2022/05/12 13:29:32;;;;;;;;;;;23.30;99.90;;;;;;5031551;28;19925;-71
2022/05/12 13:32:18;;;;;;;;;;;23.10;99.90;;;;;;5032303;28;20026;-73
2022/05/12 13:34:51;;;;;;;;;;;22.80;99.90;;;;;;5028486;28;20518;-73
2022/05/12 13:37:21;;;;;;;;;;;22.70;99.90;;;;;;5034360;28;19964;-71
2022/05/12 13:40:12;;;;;;;;;;;22.70;99.90;;;;;;5029511;28;19936;-72
2022/05/12 13:42:46;;;;;;;;;;;22.60;99.90;;;;;;5034160;28;19909;-71
2022/05/12 13:45:45;;;;;;;;;;;22.40;99.90;;;;;;5019473;28;19924;-71
2022/05/12 13:48:17;;;;;;;;;;;22.50;99.90;;;;;;5022408;28;19993;-72
2022/05/12 13:50:47;;;;;;;;;;;22.50;99.90;;;;;;5040919;28;19913;-72
2022/05/12 13:57:06;;;;;;;;;;;22.70;99.90;;;;;;4921442;29;20166;-71
2022/05/12 14:03:07;;;;;;;;;;;22.60;99.90;;;;;;4899203;29;19922;-71
2022/05/12 14:05:33;;;;;;;;;;;22.60;99.90;;;;;;4902452;29;19916;-71
2022/05/12 14:08:06;;;;;;;;;;;22.60;99.90;;;;;;4992776;28;19928;-71
2022/05/12 14:10:54;;;;;;;;;;;;;;;;;;;;;
2022/05/12 14:19:49;;;;;;;;;;;23.10;99.90;;;;;;5032900;28;19928;-71
2022/05/12 14:22:16;;;;;;;;;;;23.10;99.90;;;;;;5001368;28;20092;-71
2022/05/12 14:24:45;;;;;;;;;;;23.20;99.90;;;;;;5029544;28;19909;-71
2022/05/12 14:27:12;;;;;;;;;;;23.20;99.90;;;;;;5031867;28;19919;-72
2022/05/12 14:29:55;;;;;;;;;;;;;;;;;;;;;
2022/05/12 14:32:35;;;;;;;;;;;23.40;99.90;;;;;;5022222;28;20035;-71
2022/05/12 14:35:03;;;;;;;;;;;23.50;99.90;;;;;;5035129;28;19920;-71
2022/05/12 14:37:51;;;;;;;;;;;;;;;;;;;;;
2022/05/12 14:40:22;;;;;;;;;;;23.30;99.90;;;;;;5034021;28;19935;-71
2022/05/12 14:42:48;;;;;;;;;;;23.50;99.90;;;;;;5034143;28;19984;-72
2022/05/12 14:45:14;;;;;;;;;;;23.60;99.90;;;;;;4999391;28;19949;-71
2022/05/12 14:47:53;;;;;;;;;;;23.70;99.90;;;;;;5027146;28;19913;-71
2022/05/12 14:50:29;;;;;;;;;;;23.60;99.90;;;;;;5034845;28;20500;-72
2022/05/12 14:52:55;;;;;;;;;;;23.70;99.90;;;;;;5031661;28;20013;-71
2022/05/12 14:55:23;;;;;;;;;;;23.70;99.90;;;;;;5023111;28;19968;-73
2022/05/12 14:57:49;;;;;;;;;;;23.60;99.90;;;;;;5025755;28;19999;-71
2022/05/12 15:00:15;;;;;;;;;;;23.70;99.90;;;;;;5034178;28;19970;-71
2022/05/12 15:02:52;;;;;;;;;;;24.00;99.90;;;;;;5028241;28;19913;-71
2022/05/12 15:05:23;;;;;;;;;;;23.90;99.90;;;;;;5003892;28;19913;-72
2022/05/12 15:08:02;;;;;;;;;;;23.80;99.90;;;;;;5022028;28;19917;-71
2022/05/12 15:10:30;;;;;;;;;;;23.70;99.90;;;;;;5022532;28;19921;-71
2022/05/12 15:12:56;;;;;;;;;;;23.50;99.90;;;;;;5024246;28;19913;-71
2022/05/12 15:15:22;;;;;;;;;;;23.60;99.90;;;;;;5021799;28;19923;-70
2022/05/12 15:17:51;;;;;;;;;;;23.80;99.90;;;;;;5026502;28;19941;-70
2022/05/12 15:23:14;;;;;;;;;;;23.80;99.90;;;;;;5013311;28;19913;-69
2022/05/12 15:25:40;;;;;;;;;;;23.70;99.90;;;;;;4998384;28;20328;-71
2022/05/12 15:28:09;;;;;;;;;;;23.80;99.90;;;;;;5011114;28;19924;-71
2022/05/12 15:31:08;;;;;;;;;;;23.90;99.90;;;;;;5022809;28;20437;-72
2022/05/12 15:33:42;;;;;;;;;;;24.00;99.90;;;;;;5022158;28;20002;-71
2022/05/12 15:36:17;;;;;;;;;;;24.00;99.90;;;;;;5000315;28;19976;-72
2022/05/12 15:38:43;;;;;;;;;;;24.20;99.90;;;;;;5029400;28;19921;-71
2022/05/12 15:41:19;;;;;;;;;;;24.20;99.90;;;;;;5030873;28;19921;-70
2022/05/12 15:43:44;;;;;;;;;;;24.10;99.90;;;;;;5032874;28;19913;-70
2022/05/12 15:46:25;;;;;;;;;;;;;;;;;;;;;
2022/05/12 15:48:52;;;;;;;;;;;24.20;99.90;;;;;;5028160;28;19936;-71
2022/05/12 15:51:18;;;;;;;;;;;24.50;99.90;;;;;;5031123;28;19919;-70
2022/05/12 15:53:46;;;;;;;;;;;24.60;99.90;;;;;;5033539;28;19917;-71
2022/05/12 15:56:22;;;;;;;;;;;24.50;99.90;;;;;;5033292;28;19913;-72
2022/05/12 15:58:48;;;;;;;;;;;24.30;99.90;;;;;;5027119;28;19921;-70
2022/05/12 16:01:24;;;;;;;;;;;24.20;99.90;;;;;;5033477;28;19909;-71
2022/05/12 16:03:52;;;;;;;;;;;24.20;99.90;;;;;;5013622;28;19913;-71
2022/05/12 16:06:29;;;;;;;;;;;24.50;99.90;;;;;;5033239;28;19963;-70
2022/05/12 16:09:07;;;;;;;;;;;24.70;99.90;;;;;;5014203;28;19920;-71
2022/05/12 16:14:20;;;;;;;;;;;25.30;99.90;;;;;;5031599;28;19913;-71
2022/05/12 16:16:46;;;;;;;;;;;25.40;99.90;;;;;;5029438;28;19917;-71
2022/05/12 16:19:50;;;;;;;;;;;25.40;99.90;;;;;;5018747;28;19920;-72
2022/05/12 16:22:17;;;;;;;;;;;25.30;99.90;;;;;;5008850;28;19963;-75
2022/05/12 16:24:43;;;;;;;;;;;25.40;99.90;;;;;;5037265;28;20430;-72
2022/05/12 16:27:16;;;;;;;;;;;25.40;99.90;;;;;;5013704;28;19921;-71
2022/05/12 16:29:44;;;;;;;;;;;25.40;99.90;;;;;;5017136;28;19979;-70
2022/05/12 16:32:12;;;;;;;;;;;25.40;99.90;;;;;;5031903;28;20278;-71
2022/05/12 16:34:38;;;;;;;;;;;25.60;99.90;;;;;;5037242;28;19910;-71
2022/05/12 16:37:04;;;;;;;;;;;25.60;99.90;;;;;;5033346;28;19921;-72
2022/05/12 16:39:30;;;;;;;;;;;25.60;99.90;;;;;;5014495;28;20019;-71
2022/05/12 16:41:58;;;;;;;;;;;25.70;99.90;;;;;;5037117;28;19955;-72
2022/05/12 16:44:24;;;;;;;;;;;25.70;99.90;;;;;;5037274;28;19916;-72
2022/05/12 16:46:57;;;;;;;;;;;25.70;99.90;;;;;;5035937;28;19955;-72
2022/05/12 16:49:27;;;;;;;;;;;25.60;99.90;;;;;;5036670;28;19909;-72
2022/05/12 16:51:57;;;;;;;;;;;25.60;99.90;;;;;;5033989;28;19944;-71
2022/05/12 16:54:24;;;;;;;;;;;25.70;99.90;;;;;;5033264;28;19913;-71
2022/05/12 16:56:50;;;;;;;;;;;25.90;99.90;;;;;;5036186;28;19917;-72
2022/05/12 16:59:16;;;;;;;;;;;26.00;99.90;;;;;;5035888;28;19922;-72
2022/05/12 17:01:41;;;;;;;;;;;26.00;99.90;;;;;;5036144;28;19921;-72
2022/05/12 17:04:07;;;;;;;;;;;25.80;99.90;;;;;;5036739;28;19990;-72
2022/05/12 17:06:34;;;;;;;;;;;25.80;99.90;;;;;;5036704;28;19909;-72
2022/05/12 17:08:59;;;;;;;;;;;25.70;99.90;;;;;;5036368;28;19920;-72
2022/05/12 17:11:27;;;;;;;;;;;25.90;99.90;;;;;;5035722;28;19987;-71
2022/05/12 17:13:53;;;;;;;;;;;26.00;99.90;;;;;;5030657;28;19917;-72
2022/05/12 17:16:18;;;;;;;;;;;26.10;99.90;;;;;;5007931;28;20004;-71
2022/05/12 17:18:46;;;;;;;;;;;26.60;99.90;;;;;;5025901;28;19909;-72
2022/05/12 17:21:14;;;;;;;;;;;27.10;99.90;;;;;;5035725;28;19913;-71
2022/05/12 17:23:40;;;;;;;;;;;27.70;99.90;;;;;;5054217;28;19913;-72
2022/05/12 17:26:06;;;;;;;;;;;27.90;99.90;;;;;;5056945;28;19959;-72
2022/05/12 17:28:33;;;;;;;;;;;28.00;99.90;;;;;;5057597;28;19921;-72
2022/05/12 17:30:59;;;;;;;;;;;27.90;99.90;;;;;;5025782;28;20003;-72
2022/05/12 17:33:25;;;;;;;;;;;27.90;99.90;;;;;;5026375;28;19998;-72
2022/05/12 17:35:51;;;;;;;;;;;28.10;99.90;;;;;;5036441;28;20299;-71
2022/05/12 17:38:16;;;;;;;;;;;28.20;99.90;;;;;;5038292;28;20371;-72
2022/05/12 17:40:45;;;;;;;;;;;28.10;99.90;;;;;;5040674;28;19913;-71
2022/05/12 17:43:11;;;;;;;;;;;28.00;99.90;;;;;;5036389;28;20395;-72
2022/05/12 17:45:37;;;;;;;;;;;27.70;99.90;;;;;;5035577;28;19919;-72
2022/05/12 17:48:03;;;;;;;;;;;27.70;99.90;;;;;;5035742;28;19913;-71
2022/05/12 17:50:29;;;;;;;;;;;27.30;99.90;;;;;;5036681;28;19959;-72
2022/05/12 17:52:55;;;;;;;;;;;27.20;99.90;;;;;;5036084;28;19909;-73
2022/05/12 17:55:21;;;;;;;;;;;27.10;99.90;;;;;;5033937;28;19952;-72
2022/05/12 17:57:47;;;;;;;;;;;26.40;99.90;;;;;;5036147;28;19913;-75
2022/05/12 18:00:14;;;;;;;;;;;25.60;99.90;;;;;;5015435;28;19913;-71
2022/05/12 18:02:40;;;;;;;;;;;24.90;99.90;;;;;;5017775;28;19924;-70
2022/05/12 18:05:09;;;;;;;;;;;24.20;99.90;;;;;;5016558;28;19914;-71
2022/05/12 18:07:35;;;;;;;;;;;23.60;99.90;;;;;;5035575;28;20442;-71
2022/05/12 18:10:01;;;;;;;;;;;23.50;99.90;;;;;;5032651;28;19913;-70
2022/05/12 18:12:28;;;;;;;;;;;23.30;99.90;;;;;;5033562;28;19976;-71
2022/05/12 18:14:54;;;;;;;;;;;23.10;99.90;;;;;;5034722;28;19914;-71
2022/05/12 18:17:19;;;;;;;;;;;23.00;99.90;;;;;;5033635;28;19921;-71
2022/05/12 18:19:45;;;;;;;;;;;22.70;99.90;;;;;;5033498;28;19939;-71
2022/05/12 18:22:12;;;;;;;;;;;22.50;99.90;;;;;;5036402;28;19940;-75
2022/05/12 18:24:38;;;;;;;;;;;22.20;99.90;;;;;;5035420;28;20280;-70
2022/05/12 18:27:04;;;;;;;;;;;22.00;99.90;;;;;;5033223;28;20864;-70
2022/05/12 18:29:29;;;;;;;;;;;21.90;99.90;;;;;;5032311;28;20600;-70
2022/05/12 18:32:02;;;;;;;;;;;21.70;99.90;;;;;;5035191;28;19944;-71
2022/05/12 18:34:28;;;;;;;;;;;21.50;99.90;;;;;;5033979;28;19920;-69
2022/05/12 18:36:57;;;;;;;;;;;21.40;99.90;;;;;;5032904;28;19917;-69
2022/05/12 18:39:22;;;;;;;;;;;21.30;99.90;;;;;;5032011;28;19914;-70
2022/05/12 18:41:48;;;;;;;;;;;21.30;99.90;;;;;;5033758;28;20271;-76
2022/05/12 18:44:16;;;;;;;;;;;21.20;99.90;;;;;;5013909;28;19917;-69
2022/05/12 18:46:42;;;;;;;;;;;21.20;99.90;;;;;;5013449;28;19941;-70
2022/05/12 18:49:08;;;;;;;;;;;21.20;99.90;;;;;;5031944;28;19913;-70
2022/05/12 18:51:33;;;;;;;;;;;21.10;99.90;;;;;;5016324;28;19913;-71
2022/05/12 18:53:59;;;;;;;;;;;21.10;99.90;;;;;;5031094;28;19994;-71
2022/05/12 18:56:25;;;;;;;;;;;21.10;99.90;;;;;;5028244;28;19922;-70
2022/05/12 18:59:04;;;;;;;;;;;21.10;99.90;;;;;;5029217;28;19939;-70
2022/05/12 19:01:33;;;;;;;;;;;21.20;99.90;;;;;;5020397;28;19913;-77
2022/05/12 19:04:02;;;;;;;;;;;21.20;99.90;;;;;;5022752;28;19917;-77
2022/05/12 19:06:28;;;;;;;;;;;21.20;99.90;;;;;;5040151;28;19999;-77
2022/05/12 19:08:54;;;;;;;;;;;21.30;99.90;;;;;;5022756;28;19980;-77
2022/05/12 19:11:20;;;;;;;;;;;21.30;99.90;;;;;;5040431;28;19913;-77
2022/05/12 19:13:46;;;;;;;;;;;21.20;99.90;;;;;;5044114;28;19917;-77
2022/05/12 19:16:18;;;;;;;;;;;21.10;99.90;;;;;;5025083;28;19992;-78
2022/05/12 19:18:47;;;;;;;;;;;21.00;99.90;;;;;;5022185;28;19913;-78
2022/05/12 19:21:13;;;;;;;;;;;21.00;99.90;;;;;;5023018;28;19916;-77
2022/05/12 19:23:44;;;;;;;;;;;21.00;99.90;;;;;;5020457;28;19913;-78
2022/05/12 19:26:10;;;;;;;;;;;20.90;99.90;;;;;;5036655;28;19959;-78
2022/05/12 19:28:35;;;;;;;;;;;20.80;99.90;;;;;;5041006;28;19921;-79
2022/05/12 19:31:06;;;;;;;;;;;20.70;99.90;;;;;;5023922;28;20078;-77
2022/05/12 19:33:33;;;;;;;;;;;20.70;99.90;;;;;;5041200;28;19917;-78
2022/05/12 19:39:02;;;;;;;;;;;20.70;99.90;;;;;;5089668;23;20013;-90
2022/05/12 19:41:28;;;;;;;;;;;20.70;99.90;;;;;;5045925;28;19920;-90
2022/05/12 19:44:04;;;;;;;;;;;20.70;99.90;;;;;;5025159;28;19921;-89
2022/05/12 19:46:31;;;;;;;;;;;20.70;99.90;;;;;;5046610;28;19916;-89
2022/05/12 19:49:33;;;;;;;;;;;20.70;99.90;;;;;;5066237;28;19927;-93
2022/05/12 19:52:14;;;;;;;;;;;20.70;99.90;;;;;;5040117;28;20356;-91
2022/05/12 19:55:02;;;;;;;;;;;20.70;99.90;;;;;;5053417;28;20000;-92
2022/05/12 19:57:27;;;;;;;;;;;20.90;99.90;;;;;;5032256;23;19925;-73
2022/05/12 19:59:53;;;;;;;;;;;20.90;99.90;;;;;;5037993;28;19916;-72
2022/05/12 20:02:19;;;;;;;;;;;20.90;99.90;;;;;;5026737;28;19909;-72
2022/05/12 20:04:45;;;;;;;;;;;20.90;99.90;;;;;;5030771;28;20284;-71
2022/05/12 20:07:11;;;;;;;;;;;20.90;99.90;;;;;;5031405;28;19909;-74
2022/05/12 20:09:36;;;;;;;;;;;21.00;99.90;;;;;;5034305;28;19919;-73
2022/05/12 20:12:03;;;;;;;;;;;21.00;99.90;;;;;;5055214;28;19993;-73
2022/05/12 20:14:28;;;;;;;;;;;20.90;99.90;;;;;;5032582;28;19963;-73
2022/05/12 20:16:55;;;;;;;;;;;20.70;99.90;;;;;;5036387;28;19920;-72
2022/05/12 20:19:22;;;;;;;;;;;20.60;99.90;;;;;;5056408;28;19921;-71